sensor_id;sensor_type;location;lat;lon;timestamp;pressure;altitude;pressure_sealevel;temperature;humidity
3096;BME280;1558;42.700;23.360;2023-07-08T00:02:15;95566.38;;;21.88;100.00
3096;BME280;1558;42.700;23.360;2023-07-08T00:04:43;95566.78;;;21.86;100.00
3096;BME280;1558;42.700;23.360;2023-07-08T00:07:12;95561.31;;;21.65;100.00
3096;BME280;1558;42.700;23.360;2023-07-08T00:09:43;95556.59;;;21.62;100.00
3096;BME280;1558;42.700;23.360;2023-07-08T00:12:13;95554.25;;;21.57;100.00
3096;BME280;1558;42.700;23.360;2023-07-08T00:14:41;95555.81;;;21.65;100.00
3096;BME280;1558;42.700;23.360;2023-07-08T00:17:11;95555.44;;;21.56;100.00
3096;BME280;1558;42.700;23.360;2023-07-08T00:19:40;95552.69;;;21.56;100.00
3096;BME280;1558;42.700;23.360;2023-07-08T00:22:11;95553.09;;;21.47;100.00
3096;BME280;1558;42.700;23.360;2023-07-08T00:24:42;95416.75;;;20.74;100.00
3096;BME280;1558;42.700;23.360;2023-07-08T00:27:12;95547.56;;;21.65;100.00
3096;BME280;1558;42.700;23.360;2023-07-08T00:29:40;95539.75;;;21.53;100.00
3096;BME280;1558;42.700;23.360;2023-07-08T00:32:13;95530.75;;;21.42;100.00
3096;BME280;1558;42.700;23.360;2023-07-08T00:34:42;95532.31;;;21.43;100.00
3096;BME280;1558;42.700;23.360;2023-07-08T00:37:13;95537.03;;;21.46;100.00
3096;BME280;1558;42.700;23.360;2023-07-08T00:39:41;95537.41;;;21.37;100.00
3096;BME280;1558;42.700;23.360;2023-07-08T00:42:15;95543.69;;;21.55;100.00
3096;BME280;1558;42.700;23.360;2023-07-08T00:44:44;95545.63;;;21.55;100.00
3096;BME280;1558;42.700;23.360;2023-07-08T00:47:14;95526.44;;;21.48;100.00
3096;BME280;1558;42.700;23.360;2023-07-08T00:49:46;95533.06;;;21.65;100.00
3096;BME280;1558;42.700;23.360;2023-07-08T00:52:23;95533.84;;;21.65;100.00
3096;BME280;1558;42.700;23.360;2023-07-08T00:54:53;95530.31;;;21.65;100.00
3096;BME280;1558;42.700;23.360;2023-07-08T00:57:25;95524.84;;;21.54;100.00
3096;BME280;1558;42.700;23.360;2023-07-08T00:59:59;95529.16;;;21.44;100.00
3096;BME280;1558;42.700;23.360;2023-07-08T01:02:32;95529.56;;;21.53;100.00
3096;BME280;1558;42.700;23.360;2023-07-08T01:05:05;95518.59;;;21.46;100.00
3096;BME280;1558;42.700;23.360;2023-07-08T01:07:34;95502.53;;;21.38;100.00
3096;BME280;1558;42.700;23.360;2023-07-08T01:10:07;95511.13;;;21.40;100.00
3096;BME280;1558;42.700;23.360;2023-07-08T01:12:43;95520.59;;;21.32;100.00
3096;BME280;1558;42.700;23.360;2023-07-08T01:15:13;95518.63;;;21.29;100.00
3096;BME280;1558;42.700;23.360;2023-07-08T01:17:43;95508.41;;;21.36;100.00
3096;BME280;1558;42.700;23.360;2023-07-08T01:20:12;95522.16;;;21.29;100.00
3096;BME280;1558;42.700;23.360;2023-07-08T01:22:43;95519.78;;;21.35;100.00
3096;BME280;1558;42.700;23.360;2023-07-08T01:25:13;95510.00;;;21.27;100.00
3096;BME280;1558;42.700;23.360;2023-07-08T01:27:44;95513.53;;;21.10;100.00
3096;BME280;1558;42.700;23.360;2023-07-08T01:30:14;95508.81;;;21.21;100.00
3096;BME280;1558;42.700;23.360;2023-07-08T01:32:47;95490.00;;;21.16;100.00
3096;BME280;1558;42.700;23.360;2023-07-08T01:35:16;95495.47;;;21.23;100.00
3096;BME280;1558;42.700;23.360;2023-07-08T01:37:49;95504.13;;;21.14;100.00
3096;BME280;1558;42.700;23.360;2023-07-08T01:40:31;95512.75;;;21.23;100.00
3096;BME280;1558;42.700;23.360;2023-07-08T01:45:29;95486.47;;;21.19;100.00
3096;BME280;1558;42.700;23.360;2023-07-08T01:48:01;95510.38;;;21.29;100.00
3096;BME280;1558;42.700;23.360;2023-07-08T01:50:32;95493.16;;;21.07;100.00
3096;BME280;1558;42.700;23.360;2023-07-08T01:53:08;95505.69;;;21.19;100.00
3096;BME280;1558;42.700;23.360;2023-07-08T01:55:38;95490.44;;;21.11;100.00
3096;BME280;1558;42.700;23.360;2023-07-08T01:58:06;95497.84;;;21.31;100.00
3096;BME280;1558;42.700;23.360;2023-07-08T02:00:34;95489.19;;;21.33;100.00
3096;BME280;1558;42.700;23.360;2023-07-08T02:03:02;95496.63;;;21.43;100.00
3096;BME280;1558;42.700;23.360;2023-07-08T02:05:30;95497.00;;;21.52;100.00
3096;BME280;1558;42.700;23.360;2023-07-08T02:07:59;95493.41;;;21.69;99.15
3096;BME280;1558;42.700;23.360;2023-07-08T02:10:28;95494.22;;;21.59;98.56
3096;BME280;1558;42.700;23.360;2023-07-08T02:12:56;95506.75;;;21.71;97.65
3096;BME280;1558;42.700;23.360;2023-07-08T02:15:25;95499.28;;;21.71;97.77
3096;BME280;1558;42.700;23.360;2023-07-08T02:17:53;95513.47;;;21.52;98.64
3096;BME280;1558;42.700;23.360;2023-07-08T02:20:22;95509.16;;;21.58;98.87
3096;BME280;1558;42.700;23.360;2023-07-08T02:22:50;95514.25;;;21.49;99.22
3096;BME280;1558;42.700;23.360;2023-07-08T02:25:18;95508.44;;;21.29;99.64
3096;BME280;1558;42.700;23.360;2023-07-08T02:27:47;95517.81;;;21.35;100.00
3096;BME280;1558;42.700;23.360;2023-07-08T02:30:15;95524.47;;;21.38;99.78
3096;BME280;1558;42.700;23.360;2023-07-08T02:32:44;95526.84;;;21.36;99.40
3096;BME280;1558;42.700;23.360;2023-07-08T02:35:24;95535.84;;;21.40;99.70
3096;BME280;1558;42.700;23.360;2023-07-08T02:37:53;95539.78;;;21.35;100.00
3096;BME280;1558;42.700;23.360;2023-07-08T02:40:22;95544.09;;;21.19;100.00
3096;BME280;1558;42.700;23.360;2023-07-08T02:42:52;95539.81;;;21.25;100.00
3096;BME280;1558;42.700;23.360;2023-07-08T02:45:20;95534.31;;;21.14;100.00
3096;BME280;1558;42.700;23.360;2023-07-08T02:47:48;95532.72;;;21.03;100.00
3096;BME280;1558;42.700;23.360;2023-07-08T02:50:16;95541.75;;;21.14;100.00
3096;BME280;1558;42.700;23.360;2023-07-08T02:52:45;95540.16;;;20.95;100.00
3096;BME280;1558;42.700;23.360;2023-07-08T02:55:13;95551.13;;;20.77;100.00
3096;BME280;1558;42.700;23.360;2023-07-08T02:57:41;95554.31;;;21.08;100.00
3096;BME280;1558;42.700;23.360;2023-07-08T03:00:12;95550.38;;;21.16;100.00
3096;BME280;1558;42.700;23.360;2023-07-08T03:02:41;95538.63;;;21.12;100.00
3096;BME280;1558;42.700;23.360;2023-07-08T03:05:09;95511.16;;;20.90;100.00
3096;BME280;1558;42.700;23.360;2023-07-08T03:07:37;95546.06;;;21.11;100.00
3096;BME280;1558;42.700;23.360;2023-07-08T03:10:06;95543.34;;;21.15;100.00
3096;BME280;1558;42.700;23.360;2023-07-08T03:12:34;95546.06;;;21.01;100.00
3096;BME280;1558;42.700;23.360;2023-07-08T03:15:02;95541.34;;;20.83;100.00
3096;BME280;1558;42.700;23.360;2023-07-08T03:17:32;95546.44;;;20.88;100.00
3096;BME280;1558;42.700;23.360;2023-07-08T03:20:00;95553.88;;;20.70;100.00
3096;BME280;1558;42.700;23.360;2023-07-08T03:22:28;95544.09;;;20.98;100.00
3096;BME280;1558;42.700;23.360;2023-07-08T03:24:56;95545.31;;;21.11;100.00
3096;BME280;1558;42.700;23.360;2023-07-08T03:27:24;95551.91;;;20.92;100.00
3096;BME280;1558;42.700;23.360;2023-07-08T03:29:52;95544.09;;;21.12;100.00
3096;BME280;1558;42.700;23.360;2023-07-08T03:32:20;95543.69;;;20.88;100.00
3096;BME280;1558;42.700;23.360;2023-07-08T03:34:50;95532.31;;;20.69;100.00
3096;BME280;1558;42.700;23.360;2023-07-08T03:37:18;95539.38;;;20.84;100.00
3096;BME280;1558;42.700;23.360;2023-07-08T03:39:46;95528.41;;;20.98;100.00
3096;BME280;1558;42.700;23.360;2023-07-08T03:42:14;95540.16;;;20.95;100.00
3096;BME280;1558;42.700;23.360;2023-07-08T03:44:42;95545.66;;;21.16;100.00
3096;BME280;1558;42.700;23.360;2023-07-08T03:47:10;95538.63;;;21.12;100.00
3096;BME280;1558;42.700;23.360;2023-07-08T03:49:38;95535.09;;;21.08;100.00
3096;BME280;1558;42.700;23.360;2023-07-08T03:52:14;95536.63;;;21.02;100.00
3096;BME280;1558;42.700;23.360;2023-07-08T03:54:42;95535.50;;;21.10;100.00
3096;BME280;1558;42.700;23.360;2023-07-08T03:57:10;95542.56;;;21.18;100.00
3096;BME280;1558;42.700;23.360;2023-07-08T03:59:38;95512.38;;;21.11;100.00
3096;BME280;1558;42.700;23.360;2023-07-08T04:02:08;95513.53;;;21.17;100.00
3096;BME280;1558;42.700;23.360;2023-07-08T04:04:37;95528.78;;;21.35;99.82
3096;BME280;1558;42.700;23.360;2023-07-08T04:07:06;95535.06;;;21.46;99.55
3096;BME280;1558;42.700;23.360;2023-07-08T04:09:35;95535.84;;;21.47;99.49
3096;BME280;1558;42.700;23.360;2023-07-08T04:12:04;95536.22;;;21.42;99.58
3096;BME280;1558;42.700;23.360;2023-07-08T04:14:32;95545.59;;;21.73;98.65
3096;BME280;1558;42.700;23.360;2023-07-08T04:17:00;95548.41;;;21.41;98.14
3096;BME280;1558;42.700;23.360;2023-07-08T04:19:30;95559.72;;;21.64;98.86
3096;BME280;1558;42.700;23.360;2023-07-08T04:21:58;95550.31;;;21.72;97.53
3096;BME280;1558;42.700;23.360;2023-07-08T04:24:26;95550.69;;;21.74;96.91
3096;BME280;1558;42.700;23.360;2023-07-08T04:26:55;95552.69;;;21.56;98.13
3096;BME280;1558;42.700;23.360;2023-07-08T04:29:23;95548.72;;;21.75;97.79
3096;BME280;1558;42.700;23.360;2023-07-08T04:31:51;95545.97;;;21.82;96.94
3096;BME280;1558;42.700;23.360;2023-07-08T04:34:20;95562.03;;;21.90;96.37
3096;BME280;1558;42.700;23.360;2023-07-08T04:36:48;95542.44;;;21.71;96.88
3096;BME280;1558;42.700;23.360;2023-07-08T04:39:17;95559.69;;;21.89;96.35
3096;BME280;1558;42.700;23.360;2023-07-08T04:41:45;95560.44;;;22.03;95.10
3096;BME280;1558;42.700;23.360;2023-07-08T04:44:15;95558.88;;;22.02;94.56
3096;BME280;1558;42.700;23.360;2023-07-08T04:46:49;95520.13;;;21.58;95.18
3096;BME280;1558;42.700;23.360;2023-07-08T04:49:21;95557.34;;;21.91;95.50
3096;BME280;1558;42.700;23.360;2023-07-08T04:51:50;95547.53;;;21.86;95.57
3096;BME280;1558;42.700;23.360;2023-07-08T04:54:19;95559.66;;;22.03;94.67
3096;BME280;1558;42.700;23.360;2023-07-08T04:56:48;95470.34;;;21.56;94.40
3096;BME280;1558;42.700;23.360;2023-07-08T04:59:20;95557.63;;;22.17;93.16
3096;BME280;1558;42.700;23.360;2023-07-08T05:01:48;95559.28;;;22.01;93.61
3096;BME280;1558;42.700;23.360;2023-07-08T05:04:18;95567.81;;;22.20;93.38
3096;BME280;1558;42.700;23.360;2023-07-08T05:06:47;95568.63;;;22.17;93.06
3096;BME280;1558;42.700;23.360;2023-07-08T05:09:16;95558.41;;;22.18;92.37
3096;BME280;1558;42.700;23.360;2023-07-08T05:11:45;95570.50;;;22.35;91.96
3096;BME280;1558;42.700;23.360;2023-07-08T05:14:13;95572.41;;;22.45;91.72
3096;BME280;1558;42.700;23.360;2023-07-08T05:16:43;95567.84;;;22.93;90.23
3096;BME280;1558;42.700;23.360;2023-07-08T05:19:11;95580.16;;;23.26;88.33
3096;BME280;1558;42.700;23.360;2023-07-08T05:21:39;95552.97;;;23.31;85.67
3096;BME280;1558;42.700;23.360;2023-07-08T05:24:07;95552.56;;;23.36;85.34
3096;BME280;1558;42.700;23.360;2023-07-08T05:26:35;95578.03;;;23.88;83.81
3096;BME280;1558;42.700;23.360;2023-07-08T05:29:04;95577.41;;;24.11;81.90
3096;BME280;1558;42.700;23.360;2023-07-08T05:31:33;95586.03;;;24.13;81.93
3096;BME280;1558;42.700;23.360;2023-07-08T05:34:14;95581.50;;;24.30;81.21
3096;BME280;1558;42.700;23.360;2023-07-08T05:36:42;95558.94;;;24.08;79.31
3096;BME280;1558;42.700;23.360;2023-07-08T05:39:10;95588.72;;;24.20;80.38
3096;BME280;1558;42.700;23.360;2023-07-08T05:41:38;95578.97;;;24.12;80.44
3096;BME280;1558;42.700;23.360;2023-07-08T05:44:06;95587.09;;;24.26;80.56
3096;BME280;1558;42.700;23.360;2023-07-08T05:46:34;95590.44;;;24.71;78.74
3096;BME280;1558;42.700;23.360;2023-07-08T05:49:03;95603.75;;;24.79;76.35
3096;BME280;1558;42.700;23.360;2023-07-08T05:51:33;95601.66;;;24.57;77.55
3096;BME280;1558;42.700;23.360;2023-07-08T05:54:02;95599.47;;;24.11;78.83
3096;BME280;1558;42.700;23.360;2023-07-08T05:56:30;95609.22;;;23.78;80.63
3096;BME280;1558;42.700;23.360;2023-07-08T05:58:58;95614.69;;;23.41;80.88
3096;BME280;1558;42.700;23.360;2023-07-08T06:01:26;95610.09;;;23.20;82.67
3096;BME280;1558;42.700;23.360;2023-07-08T06:03:55;95614.53;;;23.04;83.03
3096;BME280;1558;42.700;23.360;2023-07-08T06:06:25;95610.59;;;23.01;83.58
3096;BME280;1558;42.700;23.360;2023-07-08T06:08:55;95615.78;;;22.92;83.65
3096;BME280;1558;42.700;23.360;2023-07-08T06:11:23;95613.75;;;23.03;83.39
3096;BME280;1558;42.700;23.360;2023-07-08T06:13:51;95615.53;;;23.31;83.71
3096;BME280;1558;42.700;23.360;2023-07-08T06:16:20;95595.88;;;23.29;82.72
3096;BME280;1558;42.700;23.360;2023-07-08T06:19:05;95613.44;;;23.90;81.16
3096;BME280;1558;42.700;23.360;2023-07-08T06:21:33;95615.19;;;24.14;79.57
3096;BME280;1558;42.700;23.360;2023-07-08T06:24:03;95628.91;;;24.21;79.29
3096;BME280;1558;42.700;23.360;2023-07-08T06:26:31;95614.06;;;24.04;79.53
3096;BME280;1558;42.700;23.360;2023-07-08T06:28:59;95629.91;;;23.97;78.37
3096;BME280;1558;42.700;23.360;2023-07-08T06:31:28;95617.69;;;24.65;76.87
3096;BME280;1558;42.700;23.360;2023-07-08T06:33:56;95628.47;;;24.56;74.79
3096;BME280;1558;42.700;23.360;2023-07-08T06:36:24;95619.50;;;25.36;74.61
3096;BME280;1558;42.700;23.360;2023-07-08T06:38:52;95617.66;;;25.52;71.56
3096;BME280;1558;42.700;23.360;2023-07-08T06:41:22;95601.25;;;25.65;70.11
3096;BME280;1558;42.700;23.360;2023-07-08T06:43:50;95598.28;;;25.79;69.10
3096;BME280;1558;42.700;23.360;2023-07-08T06:46:20;95610.03;;;25.83;67.47
3096;BME280;1558;42.700;23.360;2023-07-08T06:48:48;95611.13;;;26.12;68.88
3096;BME280;1558;42.700;23.360;2023-07-08T06:51:17;95611.59;;;26.66;66.33
3096;BME280;1558;42.700;23.360;2023-07-08T06:53:45;95601.13;;;26.38;66.58
3096;BME280;1558;42.700;23.360;2023-07-08T06:56:13;95618.16;;;27.28;65.51
3096;BME280;1558;42.700;23.360;2023-07-08T06:58:42;95612.31;;;26.90;63.06
3096;BME280;1558;42.700;23.360;2023-07-08T07:01:11;95615.38;;;27.12;62.43
3096;BME280;1558;42.700;23.360;2023-07-08T07:03:40;95615.59;;;27.01;62.37
3096;BME280;1558;42.700;23.360;2023-07-08T07:06:08;95628.00;;;25.95;65.14
3096;BME280;1558;42.700;23.360;2023-07-08T07:08:36;95611.06;;;25.20;66.93
3096;BME280;1558;42.700;23.360;2023-07-08T07:11:04;95620.97;;;24.91;69.09
3096;BME280;1558;42.700;23.360;2023-07-08T07:13:35;95623.13;;;26.02;68.34
3096;BME280;1558;42.700;23.360;2023-07-08T07:16:04;95614.72;;;27.24;62.66
3096;BME280;1558;42.700;23.360;2023-07-08T07:18:33;95609.19;;;26.68;63.45
3096;BME280;1558;42.700;23.360;2023-07-08T07:21:01;95610.84;;;26.03;64.84
3096;BME280;1558;42.700;23.360;2023-07-08T07:23:32;95634.44;;;25.38;66.86
3096;BME280;1558;42.700;23.360;2023-07-08T07:26:00;95626.78;;;25.73;67.55
3096;BME280;1558;42.700;23.360;2023-07-08T07:28:30;95599.09;;;25.76;65.53
3096;BME280;1558;42.700;23.360;2023-07-08T07:30:59;95633.09;;;26.19;65.49
3096;BME280;1558;42.700;23.360;2023-07-08T07:33:31;95642.25;;;26.16;65.23
3096;BME280;1558;42.700;23.360;2023-07-08T07:35:59;95630.53;;;26.68;63.96
3096;BME280;1558;42.700;23.360;2023-07-08T07:38:28;95642.69;;;26.74;63.03
3096;BME280;1558;42.700;23.360;2023-07-08T07:40:56;95654.78;;;27.19;63.12
3096;BME280;1558;42.700;23.360;2023-07-08T07:43:27;95610.25;;;26.55;62.71
3096;BME280;1558;42.700;23.360;2023-07-08T07:45:55;95648.13;;;25.72;65.25
3096;BME280;1558;42.700;23.360;2023-07-08T07:48:24;95627.31;;;26.34;65.79
3096;BME280;1558;42.700;23.360;2023-07-08T07:50:53;95646.53;;;26.41;64.00
3096;BME280;1558;42.700;23.360;2023-07-08T07:53:22;95640.22;;;26.40;65.22
3096;BME280;1558;42.700;23.360;2023-07-08T07:55:56;95635.66;;;27.25;61.60
3096;BME280;1558;42.700;23.360;2023-07-08T07:58:28;95637.09;;;27.13;61.68
3096;BME280;1558;42.700;23.360;2023-07-08T08:00:56;95653.59;;;27.36;62.49
3096;BME280;1558;42.700;23.360;2023-07-08T08:03:24;95642.63;;;27.65;61.41
3096;BME280;1558;42.700;23.360;2023-07-08T08:05:54;95646.00;;;28.21;61.19
3096;BME280;1558;42.700;23.360;2023-07-08T08:08:22;95636.44;;;28.22;57.98
3096;BME280;1558;42.700;23.360;2023-07-08T08:10:50;95645.66;;;27.38;60.70
3096;BME280;1558;42.700;23.360;2023-07-08T08:13:18;95647.44;;;26.54;61.67
3096;BME280;1558;42.700;23.360;2023-07-08T08:15:46;95648.25;;;26.11;63.10
3096;BME280;1558;42.700;23.360;2023-07-08T08:18:14;95640.63;;;26.39;62.72
3096;BME280;1558;42.700;23.360;2023-07-08T08:20:42;95639.34;;;27.02;61.57
3096;BME280;1558;42.700;23.360;2023-07-08T08:23:12;95637.19;;;27.62;59.92
3096;BME280;1558;42.700;23.360;2023-07-08T08:25:40;95644.94;;;26.99;61.38
3096;BME280;1558;42.700;23.360;2023-07-08T08:28:08;95643.66;;;27.87;61.17
3096;BME280;1558;42.700;23.360;2023-07-08T08:30:36;95643.03;;;28.28;58.94
3096;BME280;1558;42.700;23.360;2023-07-08T08:33:04;95650.28;;;28.38;57.17
3096;BME280;1558;42.700;23.360;2023-07-08T08:35:33;95640.91;;;27.71;57.25
3096;BME280;1558;42.700;23.360;2023-07-08T08:38:01;95644.44;;;28.20;58.11
3096;BME280;1558;42.700;23.360;2023-07-08T08:40:32;95599.91;;;28.81;56.78
3096;BME280;1558;42.700;23.360;2023-07-08T08:43:02;95642.19;;;29.39;55.24
3096;BME280;1558;42.700;23.360;2023-07-08T08:45:34;95639.34;;;28.76;56.95
3096;BME280;1558;42.700;23.360;2023-07-08T08:48:10;95645.53;;;29.34;56.35
3096;BME280;1558;42.700;23.360;2023-07-08T08:50:44;95648.41;;;29.93;53.53
3096;BME280;1558;42.700;23.360;2023-07-08T08:53:16;95647.09;;;29.22;54.56
3096;BME280;1558;42.700;23.360;2023-07-08T08:55:51;95638.03;;;29.06;53.36
3096;BME280;1558;42.700;23.360;2023-07-08T08:58:30;95641.22;;;28.79;53.98
3096;BME280;1558;42.700;23.360;2023-07-08T09:01:02;95639.81;;;29.00;55.00
3096;BME280;1558;42.700;23.360;2023-07-08T09:03:36;95646.59;;;28.57;54.68
3096;BME280;1558;42.700;23.360;2023-07-08T09:06:12;95644.47;;;28.04;55.98
3096;BME280;1558;42.700;23.360;2023-07-08T09:08:40;95645.91;;;28.08;56.47
3096;BME280;1558;42.700;23.360;2023-07-08T09:11:27;95633.03;;;29.01;53.81
3096;BME280;1558;42.700;23.360;2023-07-08T09:13:57;95640.91;;;28.90;53.97
3096;BME280;1558;42.700;23.360;2023-07-08T09:16:32;95640.59;;;29.00;53.48
3096;BME280;1558;42.700;23.360;2023-07-08T09:19:06;95635.44;;;28.86;53.84
3096;BME280;1558;42.700;23.360;2023-07-08T09:21:40;95627.75;;;29.19;53.85
3096;BME280;1558;42.700;23.360;2023-07-08T09:24:15;95635.81;;;30.01;52.58
3096;BME280;1558;42.700;23.360;2023-07-08T09:26:47;95627.63;;;30.20;52.39
3096;BME280;1558;42.700;23.360;2023-07-08T09:29:18;95624.94;;;29.94;52.88
3096;BME280;1558;42.700;23.360;2023-07-08T09:31:46;95619.34;;;29.94;52.56
3096;BME280;1558;42.700;23.360;2023-07-08T09:34:19;95613.00;;;29.94;51.92
3096;BME280;1558;42.700;23.360;2023-07-08T09:36:51;95602.78;;;30.25;50.59
3096;BME280;1558;42.700;23.360;2023-07-08T09:39:20;95612.50;;;29.61;51.53
3096;BME280;1558;42.700;23.360;2023-07-08T09:41:50;95620.72;;;29.77;51.17
3096;BME280;1558;42.700;23.360;2023-07-08T09:44:22;95604.09;;;29.99;49.53
3096;BME280;1558;42.700;23.360;2023-07-08T09:46:53;95608.59;;;29.59;51.72
3096;BME280;1558;42.700;23.360;2023-07-08T09:49:24;95607.16;;;29.67;50.93
3096;BME280;1558;42.700;23.360;2023-07-08T09:51:56;95603.19;;;30.02;50.11
3096;BME280;1558;42.700;23.360;2023-07-08T09:54:26;95601.97;;;30.37;49.92
3096;BME280;1558;42.700;23.360;2023-07-08T09:57:02;95596.56;;;30.21;50.33
3096;BME280;1558;42.700;23.360;2023-07-08T09:59:37;95590.16;;;30.11;49.89
3096;BME280;1558;42.700;23.360;2023-07-08T10:02:25;95599.81;;;29.60;50.37
3096;BME280;1558;42.700;23.360;2023-07-08T10:04:57;95595.00;;;29.86;50.49
3096;BME280;1558;42.700;23.360;2023-07-08T10:07:28;95584.31;;;30.19;50.34
3096;BME280;1558;42.700;23.360;2023-07-08T10:10:00;95570.81;;;30.51;49.14
3096;BME280;1558;42.700;23.360;2023-07-08T10:12:32;95586.63;;;29.98;48.72
3096;BME280;1558;42.700;23.360;2023-07-08T10:15:07;95570.56;;;29.56;49.26
3096;BME280;1558;42.700;23.360;2023-07-08T10:17:40;95582.97;;;29.89;50.58
3096;BME280;1558;42.700;23.360;2023-07-08T10:20:11;95572.94;;;30.26;49.59
3096;BME280;1558;42.700;23.360;2023-07-08T10:22:46;95578.44;;;30.17;50.39
3096;BME280;1558;42.700;23.360;2023-07-08T10:25:28;95572.81;;;30.72;48.64
3096;BME280;1558;42.700;23.360;2023-07-08T10:28:04;95569.00;;;30.88;46.49
3096;BME280;1558;42.700;23.360;2023-07-08T10:30:44;95575.63;;;30.81;47.62
3096;BME280;1558;42.700;23.360;2023-07-08T10:33:34;95570.22;;;30.78;47.34
3096;BME280;1558;42.700;23.360;2023-07-08T10:36:18;95570.38;;;31.05;47.21
3096;BME280;1558;42.700;23.360;2023-07-08T10:39:02;95561.88;;;31.09;46.30
3096;BME280;1558;42.700;23.360;2023-07-08T10:41:39;95552.47;;;31.24;46.76
3096;BME280;1558;42.700;23.360;2023-07-08T10:44:17;95552.06;;;31.35;46.36
3096;BME280;1558;42.700;23.360;2023-07-08T10:46:54;95550.81;;;30.44;46.73
3096;BME280;1558;42.700;23.360;2023-07-08T10:49:40;95555.69;;;29.49;49.34
3096;BME280;1558;42.700;23.360;2023-07-08T10:52:23;95550.19;;;30.70;47.89
3096;BME280;1558;42.700;23.360;2023-07-08T10:55:07;95547.09;;;31.39;45.21
3096;BME280;1558;42.700;23.360;2023-07-08T10:58:03;95543.69;;;30.43;48.13
3096;BME280;1558;42.700;23.360;2023-07-08T11:00:42;95547.47;;;31.10;45.74
3096;BME280;1558;42.700;23.360;2023-07-08T11:06:40;95547.75;;;31.03;45.75
3096;BME280;1558;42.700;23.360;2023-07-08T11:09:15;95538.84;;;31.26;44.82
3096;BME280;1558;42.700;23.360;2023-07-08T11:11:49;95535.25;;;31.66;44.51
3096;BME280;1558;42.700;23.360;2023-07-08T11:14:24;95529.06;;;31.71;45.18
3096;BME280;1558;42.700;23.360;2023-07-08T11:17:06;95533.47;;;31.99;44.27
3096;BME280;1558;42.700;23.360;2023-07-08T11:19:38;95529.88;;;32.07;43.65
3096;BME280;1558;42.700;23.360;2023-07-08T11:22:11;95517.91;;;31.89;43.54
3096;BME280;1558;42.700;23.360;2023-07-08T11:24:44;95519.16;;;31.21;44.73
3096;BME280;1558;42.700;23.360;2023-07-08T11:27:17;95511.91;;;31.23;44.13
3096;BME280;1558;42.700;23.360;2023-07-08T11:29:55;95510.44;;;30.79;45.47
3096;BME280;1558;42.700;23.360;2023-07-08T11:32:28;95510.31;;;30.83;44.72
3096;BME280;1558;42.700;23.360;2023-07-08T11:34:59;95495.03;;;29.91;46.42
3096;BME280;1558;42.700;23.360;2023-07-08T11:37:30;95521.91;;;29.85;47.07
3096;BME280;1558;42.700;23.360;2023-07-08T11:39:59;95510.72;;;30.41;46.81
3096;BME280;1558;42.700;23.360;2023-07-08T11:42:34;95459.88;;;30.50;45.46
3096;BME280;1558;42.700;23.360;2023-07-08T11:45:08;95490.81;;;30.52;45.82
3096;BME280;1558;42.700;23.360;2023-07-08T11:47:45;95523.56;;;30.69;44.90
3096;BME280;1558;42.700;23.360;2023-07-08T11:50:19;95512.28;;;30.73;45.07
3096;BME280;1558;42.700;23.360;2023-07-08T11:52:54;95526.81;;;30.03;46.15
3096;BME280;1558;42.700;23.360;2023-07-08T11:55:25;95513.69;;;30.03;46.65
3096;BME280;1558;42.700;23.360;2023-07-08T11:57:59;95519.28;;;30.47;47.21
3096;BME280;1558;42.700;23.360;2023-07-08T12:00:31;95521.28;;;31.08;46.13
3096;BME280;1558;42.700;23.360;2023-07-08T12:03:19;95511.97;;;29.84;46.20
3096;BME280;1558;42.700;23.360;2023-07-08T12:05:47;95532.91;;;29.17;47.78
3096;BME280;1558;42.700;23.360;2023-07-08T12:08:18;95538.09;;;28.77;48.51
3096;BME280;1558;42.700;23.360;2023-07-08T12:10:49;95506.69;;;28.93;48.64
3096;BME280;1558;42.700;23.360;2023-07-08T12:13:21;95502.44;;;29.26;48.15
3096;BME280;1558;42.700;23.360;2023-07-08T12:15:52;95522.22;;;29.03;47.99
3096;BME280;1558;42.700;23.360;2023-07-08T12:18:25;95516.66;;;28.77;49.26
3096;BME280;1558;42.700;23.360;2023-07-08T12:20:57;95476.78;;;28.97;47.95
3096;BME280;1558;42.700;23.360;2023-07-08T12:23:28;95519.66;;;29.08;48.53
3096;BME280;1558;42.700;23.360;2023-07-08T12:25:57;95510.44;;;28.99;49.25
3096;BME280;1558;42.700;23.360;2023-07-08T12:28:26;95508.50;;;28.45;49.01
3096;BME280;1558;42.700;23.360;2023-07-08T12:30:54;95497.53;;;28.54;49.28
3096;BME280;1558;42.700;23.360;2023-07-08T12:33:33;95511.28;;;28.58;48.79
3096;BME280;1558;42.700;23.360;2023-07-08T12:36:04;95510.88;;;29.10;48.88
3096;BME280;1558;42.700;23.360;2023-07-08T12:38:33;95500.72;;;29.54;48.11
3096;BME280;1558;42.700;23.360;2023-07-08T12:41:09;95503.28;;;29.48;48.18
3096;BME280;1558;42.700;23.360;2023-07-08T12:43:38;95489.63;;;29.75;48.37
3096;BME280;1558;42.700;23.360;2023-07-08T12:46:08;95500.38;;;29.86;48.52
3096;BME280;1558;42.700;23.360;2023-07-08T12:48:39;95495.34;;;29.93;48.64
3096;BME280;1558;42.700;23.360;2023-07-08T12:51:12;95489.59;;;29.54;47.26
3096;BME280;1558;42.700;23.360;2023-07-08T12:53:41;95492.53;;;29.25;47.94
3096;BME280;1558;42.700;23.360;2023-07-08T12:56:10;95489.66;;;29.28;48.39
3096;BME280;1558;42.700;23.360;2023-07-08T12:58:40;95497.44;;;29.33;48.56
3096;BME280;1558;42.700;23.360;2023-07-08T13:01:16;95499.00;;;29.22;48.82
3096;BME280;1558;42.700;23.360;2023-07-08T13:03:48;95486.41;;;29.17;48.14
3096;BME280;1558;42.700;23.360;2023-07-08T13:06:21;95488.88;;;29.28;47.85
3096;BME280;1558;42.700;23.360;2023-07-08T13:08:51;95493.53;;;29.31;47.99
3096;BME280;1558;42.700;23.360;2023-07-08T13:11:21;95493.50;;;29.90;48.04
3096;BME280;1558;42.700;23.360;2023-07-08T13:13:53;95492.50;;;30.06;46.74
3096;BME280;1558;42.700;23.360;2023-07-08T13:16:23;95497.91;;;31.14;44.92
3096;BME280;1558;42.700;23.360;2023-07-08T13:18:55;95508.38;;;30.92;43.79
3096;BME280;1558;42.700;23.360;2023-07-08T13:21:24;95496.38;;;31.13;44.26
3096;BME280;1558;42.700;23.360;2023-07-08T13:23:53;95506.28;;;31.14;44.03
3096;BME280;1558;42.700;23.360;2023-07-08T13:26:23;95477.50;;;31.26;43.94
3096;BME280;1558;42.700;23.360;2023-07-08T13:28:59;95510.28;;;31.04;43.82
3096;BME280;1558;42.700;23.360;2023-07-08T13:31:32;95462.50;;;29.32;45.89
3096;BME280;1558;42.700;23.360;2023-07-08T13:34:08;95500.06;;;28.49;47.90